createdAt,value
2023-03-23T15:58:33.216Z,7.70
2023-03-23T16:02:25.830Z,7.10
2023-03-23T16:06:12.165Z,7.28
2023-03-23T16:10:14.782Z,10.43
2023-03-23T16:13:56.869Z,9.88
2023-03-23T16:17:39.177Z,4.78
2023-03-23T16:21:21.294Z,7.75
2023-03-23T16:25:03.374Z,6.90
2023-03-23T16:28:45.461Z,8.32
2023-03-23T16:32:27.581Z,5.97
2023-03-23T16:36:12.663Z,6.50
2023-03-23T16:39:54.714Z,7.47
2023-03-23T16:43:36.967Z,5.70
2023-03-23T16:47:19.233Z,6.65
2023-03-23T16:51:01.657Z,5.47
2023-03-23T16:54:43.766Z,4.82
2023-03-23T16:58:26.107Z,6.30
2023-03-23T17:02:09.902Z,5.20
2023-03-23T17:05:52.739Z,2.95
2023-03-23T17:09:35.339Z,4.53
2023-03-23T17:13:17.658Z,4.13
2023-03-23T17:17:00.314Z,7.88
2023-03-23T17:20:43.111Z,4.45
2023-03-23T17:24:25.733Z,3.30
2023-03-23T17:28:07.809Z,2.45
2023-03-23T17:31:50.706Z,3.20
2023-03-23T17:35:32.949Z,4.15
2023-03-23T17:39:16.075Z,2.88
2023-03-23T17:42:58.203Z,2.22
2023-03-23T17:46:40.257Z,3.45
2023-03-23T17:50:22.693Z,3.63
2023-03-23T17:54:05.080Z,2.33
2023-03-23T17:57:47.186Z,2.05
2023-03-23T18:01:29.293Z,1.17
2023-03-23T18:05:11.960Z,1.65
2023-03-23T18:08:53.994Z,1.67
2023-03-23T18:12:36.148Z,2.03
2023-03-23T18:16:18.143Z,1.20
2023-03-23T18:20:01.873Z,1.75
2023-03-23T18:23:56.737Z,0.88
2023-03-23T18:31:24.691Z,0.80
2023-03-23T18:35:09.921Z,0.50
2023-03-23T18:38:54.230Z,0.60
2023-03-23T18:42:36.342Z,0.90
2023-03-23T18:46:19.008Z,1.50
2023-03-23T18:50:01.640Z,1.02
2023-03-23T18:53:43.671Z,2.13
2023-03-23T18:57:26.126Z,3.40
2023-03-23T19:01:11.805Z,2.33
2023-03-23T19:04:53.880Z,2.55
2023-03-23T19:08:36.005Z,1.73
2023-03-23T19:12:18.119Z,2.05
2023-03-23T19:16:00.897Z,2.47
2023-03-23T19:19:43.792Z,2.33
2023-03-23T19:23:26.228Z,3.40
2023-03-23T19:27:08.621Z,3.05
2023-03-23T19:30:54.856Z,2.17
2023-03-23T19:34:37.316Z,2.28
2023-03-23T19:38:21.936Z,2.45
2023-03-23T19:42:04.611Z,2.10
2023-03-23T19:45:47.402Z,3.10
2023-03-23T19:49:29.586Z,2.53
2023-03-23T19:53:11.896Z,3.28
2023-03-23T19:56:54.099Z,2.83
2023-03-23T20:00:36.561Z,3.10
2023-03-23T20:04:21.391Z,3.20
2023-03-23T20:08:04.818Z,4.22
2023-03-23T20:11:47.072Z,3.17
2023-03-23T20:15:31.074Z,4.82
2023-03-23T20:19:13.119Z,3.45
2023-03-23T20:22:57.923Z,4.72
2023-03-23T20:26:43.268Z,5.32
2023-03-23T20:30:25.317Z,5.47
2023-03-23T20:34:13.409Z,4.35
2023-03-23T20:37:55.946Z,7.93
2023-03-23T20:41:39.034Z,5.22
2023-03-23T20:45:21.241Z,6.85
2023-03-23T20:49:05.486Z,7.00
2023-03-23T20:52:48.114Z,4.65
2023-03-23T20:56:30.550Z,6.68
2023-03-23T21:00:16.477Z,9.45
2023-03-23T21:04:00.299Z,5.63
2023-03-23T21:07:42.913Z,8.13
2023-03-23T21:11:26.778Z,11.57
2023-03-23T21:15:08.851Z,11.52
2023-03-23T21:18:51.230Z,9.00
2023-03-23T21:22:33.419Z,8.27
2023-03-23T21:26:17.386Z,9.50
2023-03-23T21:30:00.317Z,10.73
2023-03-23T21:33:42.390Z,10.57
2023-03-23T21:37:24.464Z,8.20
2023-03-23T21:41:10.142Z,9.18
2023-03-23T21:44:53.793Z,9.88
2023-03-23T21:48:38.836Z,11.48
2023-03-23T21:52:20.968Z,15.25
2023-03-23T21:56:04.815Z,9.65
2023-03-23T21:59:47.049Z,8.90
2023-03-23T22:03:32.453Z,10.00
2023-03-23T22:07:14.565Z,6.50
2023-03-23T22:11:02.147Z,7.97
2023-03-23T22:14:44.802Z,10.88
2023-03-23T22:18:27.609Z,7.95
2023-03-23T22:22:09.696Z,12.50
2023-03-23T22:25:51.846Z,8.95
2023-03-23T22:29:33.847Z,11.25
2023-03-23T22:33:17.924Z,7.05
2023-03-23T22:37:00.030Z,8.90
2023-03-23T22:40:42.815Z,13.60
2023-03-23T22:44:24.932Z,5.82
2023-03-23T22:48:08.460Z,10.23
2023-03-23T22:51:50.657Z,9.75
2023-03-23T22:55:32.765Z,10.27
2023-03-23T22:59:14.848Z,12.30
2023-03-23T23:02:57.372Z,9.95
2023-03-23T23:06:39.626Z,7.85
2023-03-23T23:10:21.858Z,9.95
2023-03-23T23:14:04.059Z,13.70
2023-03-23T23:17:46.572Z,9.07
2023-03-23T23:21:29.103Z,10.88
2023-03-23T23:25:11.597Z,9.13
2023-03-23T23:28:56.932Z,8.23
2023-03-23T23:32:39.022Z,12.88
2023-03-23T23:36:21.490Z,13.13
2023-03-23T23:40:07.853Z,9.05
2023-03-23T23:43:50.082Z,10.48
2023-03-23T23:47:32.311Z,11.27
2023-03-23T23:51:16.552Z,9.98
2023-03-23T23:55:01.762Z,10.13
2023-03-23T23:58:43.815Z,14.00
